createdAt,value
2018-09-24T00:01:22.685Z,12.20
2018-09-24T00:03:51.165Z,12.10
2018-09-24T00:06:19.709Z,12.00
2018-09-24T00:08:48.211Z,12.10
2018-09-24T00:11:16.696Z,12.10
2018-09-24T00:13:45.256Z,11.80
2018-09-24T00:16:13.804Z,11.50
2018-09-24T00:18:42.296Z,11.40
2018-09-24T00:21:10.844Z,11.20
2018-09-24T00:23:39.387Z,11.00
2018-09-24T00:26:07.920Z,10.90
2018-09-24T00:28:36.483Z,10.90
2018-09-24T00:31:05.129Z,10.90
2018-09-24T00:33:33.632Z,11.00
2018-09-24T00:36:02.207Z,10.90
2018-09-24T00:38:30.680Z,10.80
2018-09-24T00:40:59.267Z,10.90
2018-09-24T00:43:27.858Z,10.90
2018-09-24T00:45:56.336Z,10.80
2018-09-24T00:48:24.861Z,10.80
2018-09-24T00:50:53.352Z,10.80
2018-09-24T00:53:21.880Z,10.70
2018-09-24T00:55:50.388Z,10.60
2018-09-24T00:58:18.927Z,10.70
2018-09-24T01:00:47.407Z,10.80
2018-09-24T01:03:15.947Z,10.80
2018-09-24T01:05:44.460Z,10.70
2018-09-24T01:08:12.974Z,10.60
2018-09-24T01:10:41.487Z,10.60
2018-09-24T01:13:09.987Z,10.50
2018-09-24T01:15:38.480Z,10.50
2018-09-24T01:18:07.029Z,10.40
2018-09-24T01:20:35.571Z,10.20
2018-09-24T01:23:04.127Z,10.10
2018-09-24T01:25:32.600Z,10.30
2018-09-24T01:28:01.099Z,10.30
2018-09-24T01:30:29.663Z,10.20
2018-09-24T01:32:58.174Z,10.10
2018-09-24T01:35:26.728Z,10.00
2018-09-24T01:37:55.228Z,10.00
2018-09-24T01:40:23.751Z,10.00
2018-09-24T01:42:52.267Z,9.90
2018-09-24T01:45:20.806Z,10.00
2018-09-24T01:47:49.343Z,10.00
2018-09-24T01:50:17.856Z,10.00
2018-09-24T01:52:46.339Z,10.10
2018-09-24T01:55:14.863Z,10.20
2018-09-24T01:57:43.370Z,10.10
2018-09-24T02:00:11.856Z,10.10
2018-09-24T02:02:40.352Z,10.10
2018-09-24T02:05:14.712Z,10.00
2018-09-24T02:07:43.241Z,10.00
2018-09-24T02:10:11.715Z,9.90
2018-09-24T02:12:40.212Z,9.90
2018-09-24T02:15:08.732Z,10.00
2018-09-24T02:17:37.294Z,9.90
2018-09-24T02:20:05.923Z,9.80
2018-09-24T02:22:40.967Z,9.80
2018-09-24T02:25:09.488Z,9.70
2018-09-24T02:27:38.015Z,9.70
2018-09-24T02:30:06.948Z,9.80
2018-09-24T02:32:35.436Z,9.70
2018-09-24T02:35:04.029Z,9.70
2018-09-24T02:37:32.604Z,9.70
2018-09-24T02:40:01.143Z,9.70
2018-09-24T02:42:29.701Z,9.60
2018-09-24T02:44:59.081Z,9.60
2018-09-24T02:47:32.199Z,9.60
2018-09-24T02:50:01.983Z,9.50
2018-09-24T02:52:30.520Z,9.50
2018-09-24T02:54:59.036Z,9.50
2018-09-24T02:57:27.543Z,9.50
2018-09-24T02:59:56.064Z,9.50
2018-09-24T03:02:24.539Z,9.40
2018-09-24T03:04:55.435Z,9.40
2018-09-24T03:07:24.236Z,9.40
2018-09-24T03:09:52.715Z,9.40
2018-09-24T03:12:21.247Z,9.20
2018-09-24T03:14:49.739Z,9.10
2018-09-24T03:17:19.244Z,9.00
2018-09-24T03:19:47.775Z,9.00
2018-09-24T03:22:21.597Z,9.00
2018-09-24T03:24:50.347Z,8.90
2018-09-24T03:27:18.954Z,8.80
2018-09-24T03:29:47.508Z,8.90
2018-09-24T03:32:16.027Z,9.10
2018-09-24T03:34:44.544Z,9.10
2018-09-24T03:37:13.085Z,9.00
2018-09-24T03:39:41.570Z,8.90
2018-09-24T03:42:10.099Z,8.90
2018-09-24T03:44:38.589Z,9.00
2018-09-24T03:47:07.129Z,9.00
2018-09-24T03:49:35.614Z,9.00
2018-09-24T03:52:04.183Z,8.90
2018-09-24T03:54:32.703Z,8.80
2018-09-24T03:57:01.232Z,8.80
2018-09-24T03:59:29.796Z,8.70
2018-09-24T04:01:58.303Z,8.60
2018-09-24T04:04:32.179Z,8.40
2018-09-24T04:07:06.136Z,8.40
2018-09-24T04:09:40.021Z,8.40
2018-09-24T04:12:13.945Z,8.40
2018-09-24T04:14:47.832Z,8.30
2018-09-24T04:17:21.724Z,8.40
2018-09-24T04:19:55.594Z,8.40
2018-09-24T04:22:29.360Z,8.40
2018-09-24T04:25:03.279Z,8.40
2018-09-24T04:27:37.055Z,8.30
2018-09-24T04:30:10.887Z,8.30
2018-09-24T04:32:44.789Z,8.30
2018-09-24T04:35:18.527Z,8.30
2018-09-24T04:37:52.304Z,8.40
2018-09-24T04:40:26.017Z,8.40
2018-09-24T04:42:59.807Z,8.40
2018-09-24T04:45:33.663Z,8.40
2018-09-24T04:48:07.595Z,8.30
2018-09-24T04:50:41.334Z,8.30
2018-09-24T04:53:15.252Z,8.40
2018-09-24T04:55:49.063Z,8.20
2018-09-24T04:58:22.867Z,8.30
2018-09-24T05:00:56.701Z,8.30
2018-09-24T05:03:30.552Z,8.30
2018-09-24T05:06:04.735Z,8.30
2018-09-24T05:08:38.687Z,8.20
2018-09-24T05:11:12.545Z,8.20
2018-09-24T05:13:46.439Z,8.10
2018-09-24T05:16:20.374Z,8.10
2018-09-24T05:18:54.232Z,8.10
2018-09-24T05:21:27.964Z,8.10
2018-09-24T05:24:01.767Z,8.10
2018-09-24T05:26:35.507Z,8.10
2018-09-24T05:29:09.309Z,8.10
2018-09-24T05:31:43.136Z,8.10
2018-09-24T05:34:16.981Z,8.00
2018-09-24T05:36:50.704Z,7.90
2018-09-24T05:39:24.598Z,7.90
2018-09-24T05:41:58.412Z,7.90
2018-09-24T05:44:32.015Z,8.00
2018-09-24T05:47:05.747Z,8.00
2018-09-24T05:49:39.501Z,8.10
2018-09-24T05:52:13.483Z,8.10
2018-09-24T05:54:47.182Z,8.00
2018-09-24T05:57:21.043Z,8.00
2018-09-24T05:59:54.758Z,8.00
2018-09-24T06:02:28.578Z,7.80
2018-09-24T06:05:02.508Z,7.80
2018-09-24T06:07:36.268Z,7.70
2018-09-24T06:10:10.206Z,7.80
2018-09-24T06:12:44.032Z,7.80
2018-09-24T06:15:17.748Z,8.00
2018-09-24T06:17:51.725Z,8.00
2018-09-24T06:20:25.640Z,8.00
2018-09-24T06:22:59.571Z,8.00
2018-09-24T06:25:33.548Z,8.00
2018-09-24T06:28:07.454Z,8.00
2018-09-24T06:30:41.486Z,7.90
2018-09-24T06:33:15.469Z,8.00
2018-09-24T06:35:49.394Z,8.00
2018-09-24T06:38:23.180Z,8.10
2018-09-24T06:40:57.052Z,8.20
2018-09-24T06:43:31.088Z,8.20
2018-09-24T06:46:05.015Z,8.10
2018-09-24T06:48:38.749Z,8.10
2018-09-24T06:51:12.599Z,8.30
2018-09-24T06:53:46.588Z,8.30
2018-09-24T06:56:20.471Z,8.40
2018-09-24T06:58:54.267Z,8.60
2018-09-24T07:01:27.993Z,8.70
2018-09-24T07:04:01.768Z,8.70
2018-09-24T07:06:35.684Z,8.60
2018-09-24T07:09:11.470Z,8.70
2018-09-24T07:11:45.445Z,8.70
2018-09-24T07:14:19.401Z,10.20
2018-09-24T07:16:53.361Z,12.40
2018-09-24T07:19:27.236Z,14.30
2018-09-24T07:22:01.093Z,14.60
2018-09-24T07:24:34.785Z,14.60
2018-09-24T07:27:08.760Z,14.40
2018-09-24T07:29:42.732Z,13.50
2018-09-24T07:32:16.484Z,12.50
2018-09-24T07:34:50.294Z,13.30
2018-09-24T07:37:24.053Z,14.90
2018-09-24T07:39:57.884Z,15.60
2018-09-24T07:42:31.828Z,14.70
2018-09-24T07:45:05.687Z,14.20
2018-09-24T07:47:39.598Z,14.20
2018-09-24T07:50:13.598Z,14.10
2018-09-24T07:52:47.411Z,15.40
2018-09-24T07:55:21.249Z,16.10
2018-09-24T07:57:55.022Z,15.70
2018-09-24T08:00:28.895Z,15.20
2018-09-24T08:03:02.732Z,15.00
2018-09-24T08:05:36.514Z,15.10
2018-09-24T08:08:10.384Z,14.50
2018-09-24T08:10:44.076Z,13.80
2018-09-24T08:13:18.115Z,13.10
2018-09-24T08:15:52.019Z,12.10
2018-09-24T08:18:25.856Z,11.60
2018-09-24T08:20:59.688Z,11.20
2018-09-24T08:23:33.487Z,10.90
2018-09-24T08:26:07.255Z,10.80
2018-09-24T08:28:41.047Z,10.70
2018-09-24T08:31:14.895Z,10.50
2018-09-24T08:33:48.683Z,10.40
2018-09-24T08:36:22.645Z,10.40
2018-09-24T08:38:56.660Z,10.30
2018-09-24T08:41:30.537Z,10.30
2018-09-24T08:44:04.492Z,10.40
2018-09-24T08:46:38.180Z,10.40
2018-09-24T08:49:12.080Z,10.50
2018-09-24T08:51:45.977Z,10.60
2018-09-24T08:54:19.686Z,10.60
2018-09-24T08:56:53.527Z,10.60
2018-09-24T08:59:27.243Z,10.60
2018-09-24T09:02:00.973Z,10.50
2018-09-24T09:04:34.680Z,10.30
2018-09-24T09:07:08.634Z,10.20
2018-09-24T09:09:42.532Z,10.30
2018-09-24T09:12:16.337Z,10.30
2018-09-24T09:14:50.289Z,10.60
2018-09-24T09:17:24.201Z,11.00
2018-09-24T09:19:57.944Z,11.30
2018-09-24T09:22:31.904Z,11.20
2018-09-24T09:25:05.677Z,11.10
2018-09-24T09:27:39.571Z,11.10
2018-09-24T09:30:13.784Z,11.20
2018-09-24T09:32:47.744Z,11.20
2018-09-24T09:35:21.735Z,11.10
2018-09-24T09:37:55.515Z,11.00
2018-09-24T09:40:29.332Z,11.10
2018-09-24T09:43:03.059Z,11.50
2018-09-24T09:45:36.864Z,12.00
2018-09-24T09:48:10.818Z,12.00
2018-09-24T09:50:44.647Z,11.90
2018-09-24T09:53:18.553Z,11.60
2018-09-24T09:55:52.204Z,11.30
2018-09-24T09:58:26.094Z,11.20
2018-09-24T10:00:59.983Z,11.20
2018-09-24T10:03:33.777Z,11.10
2018-09-24T10:06:07.639Z,11.50
2018-09-24T10:08:41.408Z,11.70
2018-09-24T10:11:15.263Z,11.80
2018-09-24T10:13:49.194Z,11.60
2018-09-24T10:16:23.091Z,11.50
2018-09-24T10:18:57.323Z,11.30
2018-09-24T10:21:31.065Z,11.30
2018-09-24T10:24:05.108Z,11.30
2018-09-24T10:26:38.981Z,11.30
2018-09-24T10:29:12.659Z,11.50
2018-09-24T10:31:46.422Z,12.00
2018-09-24T10:34:20.252Z,12.50
2018-09-24T10:36:54.172Z,13.20
2018-09-24T10:39:28.061Z,13.80
2018-09-24T10:42:01.709Z,13.90
2018-09-24T10:44:35.593Z,13.80
2018-09-24T10:47:09.535Z,13.80
2018-09-24T10:49:43.349Z,13.70
2018-09-24T10:52:17.249Z,13.70
2018-09-24T10:54:50.904Z,13.50
2018-09-24T10:57:24.595Z,13.40
2018-09-24T10:59:58.589Z,13.20
2018-09-24T11:02:32.287Z,13.10
2018-09-24T11:05:06.196Z,13.00
2018-09-24T11:07:39.820Z,13.00
2018-09-24T11:10:13.869Z,12.80
2018-09-24T11:12:47.829Z,12.50
2018-09-24T11:15:21.437Z,12.40
2018-09-24T11:17:55.200Z,12.40
2018-09-24T11:20:29.039Z,12.50
2018-09-24T11:23:02.899Z,12.90
2018-09-24T11:25:36.784Z,13.20
2018-09-24T11:28:10.632Z,13.20
2018-09-24T11:30:44.440Z,13.10
2018-09-24T11:33:18.288Z,12.90
2018-09-24T11:35:52.221Z,12.80
2018-09-24T11:38:26.047Z,12.90
2018-09-24T11:40:59.955Z,13.20
2018-09-24T11:43:33.784Z,13.40
2018-09-24T11:46:07.693Z,13.50
2018-09-24T11:48:41.615Z,13.30
2018-09-24T11:51:15.419Z,13.00
2018-09-24T11:53:49.103Z,12.60
2018-09-24T11:56:22.889Z,12.50
2018-09-24T11:58:56.633Z,12.20
2018-09-24T12:01:30.544Z,12.20
2018-09-24T12:04:04.445Z,12.30
2018-09-24T12:06:38.350Z,12.70
2018-09-24T12:09:14.020Z,13.20
2018-09-24T12:11:48.508Z,13.70
2018-09-24T12:14:22.453Z,14.10
2018-09-24T12:16:56.193Z,14.30
2018-09-24T12:19:30.336Z,14.50
2018-09-24T12:22:04.220Z,14.70
2018-09-24T12:24:38.172Z,14.80
2018-09-24T12:27:12.161Z,14.90
2018-09-24T12:29:46.010Z,15.10
2018-09-24T12:32:19.969Z,15.30
2018-09-24T12:34:53.844Z,15.60
2018-09-24T12:37:27.833Z,15.70
2018-09-24T12:40:01.652Z,15.80
2018-09-24T12:42:35.516Z,15.90
2018-09-24T12:45:09.486Z,16.10
2018-09-24T12:47:43.492Z,16.30
2018-09-24T12:50:17.260Z,16.60
2018-09-24T12:52:51.218Z,16.50
2018-09-24T12:55:25.120Z,16.20
2018-09-24T12:57:58.917Z,16.20
2018-09-24T13:00:32.836Z,16.00
2018-09-24T13:03:06.756Z,15.60
2018-09-24T13:05:40.569Z,15.30
2018-09-24T13:08:14.418Z,15.00
2018-09-24T13:10:48.350Z,15.00
2018-09-24T13:13:22.155Z,14.90
2018-09-24T13:15:55.960Z,14.60
2018-09-24T13:18:29.867Z,14.40
2018-09-24T13:21:03.825Z,14.20
2018-09-24T13:23:37.623Z,14.10
2018-09-24T13:26:11.551Z,13.90
2018-09-24T13:28:45.565Z,13.90
2018-09-24T13:31:19.508Z,13.80
2018-09-24T13:33:53.349Z,13.50
2018-09-24T13:36:27.172Z,13.60
2018-09-24T13:39:01.028Z,13.90
2018-09-24T13:41:34.728Z,14.30
2018-09-24T13:44:08.515Z,14.70
2018-09-24T13:46:42.408Z,15.00
2018-09-24T13:49:16.123Z,15.20
2018-09-24T13:51:49.766Z,15.20
2018-09-24T13:54:23.558Z,15.30
2018-09-24T13:56:57.346Z,15.50
2018-09-24T13:59:31.112Z,15.50
2018-09-24T14:02:04.889Z,15.50
2018-09-24T14:04:38.643Z,15.60
2018-09-24T14:07:12.519Z,15.70
2018-09-24T14:09:46.251Z,15.60
2018-09-24T14:12:20.003Z,15.70
2018-09-24T14:14:53.955Z,15.80
2018-09-24T14:17:27.735Z,15.90
2018-09-24T14:20:01.644Z,16.00
2018-09-24T14:22:35.452Z,15.80
2018-09-24T14:25:09.199Z,15.60
2018-09-24T14:27:43.076Z,15.50
2018-09-24T14:30:16.834Z,15.60
2018-09-24T14:32:50.814Z,15.70
2018-09-24T14:35:24.549Z,15.60
2018-09-24T14:37:58.416Z,15.40
2018-09-24T14:40:32.199Z,15.20
2018-09-24T14:43:05.930Z,14.90
2018-09-24T14:45:39.731Z,14.90
2018-09-24T14:48:13.491Z,14.90
2018-09-24T14:50:47.325Z,15.10
2018-09-24T14:53:21.247Z,15.00
2018-09-24T14:55:55.053Z,14.80
2018-09-24T14:58:28.823Z,14.60
2018-09-24T15:01:02.561Z,14.50
2018-09-24T15:03:36.244Z,14.50
2018-09-24T15:06:10.074Z,14.30
2018-09-24T15:08:43.976Z,14.40
2018-09-24T15:11:18.714Z,14.50
2018-09-24T15:13:52.482Z,14.40
2018-09-24T15:16:26.388Z,14.40
2018-09-24T15:19:00.326Z,14.20
2018-09-24T15:21:34.189Z,14.30
2018-09-24T15:24:07.924Z,14.30
2018-09-24T15:26:41.685Z,14.20
2018-09-24T15:29:15.487Z,14.10
2018-09-24T15:31:49.447Z,14.10
2018-09-24T15:34:23.396Z,13.90
2018-09-24T15:36:57.376Z,13.90
2018-09-24T15:39:31.103Z,14.00
2018-09-24T15:42:05.020Z,14.10
2018-09-24T15:44:39.072Z,14.10
2018-09-24T15:47:14.001Z,14.10
2018-09-24T15:49:47.935Z,14.10
2018-09-24T15:52:21.755Z,14.10
2018-09-24T15:54:55.652Z,14.20
2018-09-24T15:57:29.466Z,13.90
2018-09-24T16:00:03.236Z,13.70
2018-09-24T16:02:37.096Z,13.60
2018-09-24T16:05:10.871Z,13.40
2018-09-24T16:07:44.729Z,13.30
2018-09-24T16:10:18.649Z,13.10
2018-09-24T16:12:52.389Z,12.70
2018-09-24T16:15:26.368Z,12.30
2018-09-24T16:18:00.272Z,12.20
2018-09-24T16:20:34.063Z,12.30
2018-09-24T16:23:07.953Z,12.20
2018-09-24T16:25:41.732Z,12.10
2018-09-24T16:28:15.559Z,12.20
2018-09-24T16:30:49.369Z,12.20
2018-09-24T16:33:23.444Z,12.30
2018-09-24T16:35:57.424Z,12.20
2018-09-24T16:38:31.410Z,12.00
2018-09-24T16:41:05.208Z,12.00
2018-09-24T16:43:39.131Z,11.90
2018-09-24T16:46:13.020Z,11.90
2018-09-24T16:48:46.855Z,12.00
2018-09-24T16:51:20.545Z,11.90
2018-09-24T16:53:54.414Z,11.80
2018-09-24T16:56:28.332Z,11.60
2018-09-24T16:59:02.319Z,11.30
2018-09-24T17:01:36.092Z,11.20
2018-09-24T17:04:10.015Z,11.10
2018-09-24T17:06:43.820Z,10.90
2018-09-24T17:09:17.832Z,10.60
2018-09-24T17:11:51.888Z,10.20
2018-09-24T17:14:25.691Z,9.90
2018-09-24T17:16:59.626Z,9.60
2018-09-24T17:19:34.500Z,9.50
2018-09-24T17:22:08.379Z,9.40
2018-09-24T17:24:42.456Z,9.30
2018-09-24T17:27:16.423Z,9.20
2018-09-24T17:29:50.170Z,9.10
2018-09-24T17:32:23.909Z,9.20
2018-09-24T17:34:57.628Z,9.20
2018-09-24T17:37:31.471Z,9.30
2018-09-24T17:40:05.538Z,9.30
2018-09-24T17:42:39.287Z,9.00
2018-09-24T17:45:13.163Z,8.90
2018-09-24T17:47:46.966Z,8.70
2018-09-24T17:50:20.677Z,8.50
2018-09-24T17:52:54.554Z,8.40
2018-09-24T17:55:28.315Z,8.40
2018-09-24T17:58:02.330Z,8.30
2018-09-24T18:00:36.176Z,8.40
2018-09-24T18:03:10.135Z,8.50
2018-09-24T18:05:43.941Z,8.60
2018-09-24T18:08:17.668Z,8.60
2018-09-24T18:10:51.491Z,8.50
2018-09-24T18:13:25.476Z,8.40
2018-09-24T18:15:59.411Z,8.30
2018-09-24T18:18:33.308Z,8.10
2018-09-24T18:21:07.112Z,7.90
2018-09-24T18:23:41.009Z,7.80
2018-09-24T18:26:14.814Z,7.70
2018-09-24T18:28:48.465Z,7.60
2018-09-24T18:31:22.384Z,7.60
2018-09-24T18:33:56.248Z,7.80
2018-09-24T18:36:30.043Z,8.00
2018-09-24T18:39:03.806Z,8.00
2018-09-24T18:41:37.673Z,8.00
2018-09-24T18:44:11.514Z,7.90
2018-09-24T18:46:45.313Z,7.80
2018-09-24T18:49:19.136Z,7.70
2018-09-24T18:51:53.067Z,7.90
2018-09-24T18:54:26.798Z,7.80
2018-09-24T18:57:00.524Z,7.80
2018-09-24T18:59:34.424Z,7.70
2018-09-24T19:02:08.213Z,7.60
2018-09-24T19:04:41.917Z,7.50
2018-09-24T19:07:15.744Z,7.60
2018-09-24T19:09:49.767Z,7.60
2018-09-24T19:12:23.560Z,7.70
2018-09-24T19:14:57.379Z,7.80
2018-09-24T19:17:31.237Z,8.00
2018-09-24T19:20:05.165Z,8.00
2018-09-24T19:22:38.851Z,7.90
2018-09-24T19:25:12.720Z,7.60
2018-09-24T19:27:46.438Z,7.40
2018-09-24T19:30:20.079Z,7.10
2018-09-24T19:32:54.007Z,7.00
2018-09-24T19:35:34.645Z,6.90
2018-09-24T19:38:08.472Z,6.90
2018-09-24T19:40:42.448Z,7.00
2018-09-24T19:43:16.366Z,7.10
2018-09-24T19:45:50.076Z,7.20
2018-09-24T19:48:23.917Z,7.20
2018-09-24T19:50:57.865Z,7.30
2018-09-24T19:53:31.578Z,7.30
2018-09-24T19:56:05.587Z,7.20
2018-09-24T19:58:39.577Z,7.00
2018-09-24T20:01:13.525Z,6.80
2018-09-24T20:03:47.492Z,6.60
2018-09-24T20:06:21.356Z,6.60
2018-09-24T20:08:55.163Z,6.70
2018-09-24T20:11:29.091Z,6.60
2018-09-24T20:14:03.024Z,6.50
2018-09-24T20:16:37.064Z,6.30
2018-09-24T20:19:11.018Z,6.10
2018-09-24T20:21:44.929Z,5.90
2018-09-24T20:24:18.869Z,5.80
2018-09-24T20:26:52.738Z,5.70
2018-09-24T20:29:26.528Z,5.60
2018-09-24T20:32:00.450Z,5.70
2018-09-24T20:34:34.412Z,5.70
2018-09-24T20:37:08.313Z,5.70
2018-09-24T20:39:42.197Z,5.70
2018-09-24T20:42:15.969Z,5.80
2018-09-24T20:44:49.783Z,5.70
2018-09-24T20:47:23.503Z,5.60
2018-09-24T20:49:57.514Z,5.50
2018-09-24T20:52:31.331Z,5.40
2018-09-24T20:55:05.226Z,5.40
2018-09-24T20:57:39.076Z,5.30
2018-09-24T21:00:12.913Z,5.30
2018-09-24T21:02:46.772Z,5.20
2018-09-24T21:05:20.579Z,5.30
2018-09-24T21:07:54.394Z,5.20
2018-09-24T21:10:28.213Z,5.10
2018-09-24T21:13:02.068Z,5.00
2018-09-24T21:15:35.768Z,4.90
2018-09-24T21:18:09.606Z,4.90
2018-09-24T21:20:43.465Z,4.90
2018-09-24T21:23:17.260Z,4.90
2018-09-24T21:25:51.059Z,4.80
2018-09-24T21:28:24.895Z,4.80
2018-09-24T21:30:58.857Z,4.70
2018-09-24T21:33:32.626Z,4.60
2018-09-24T21:36:06.592Z,4.60
2018-09-24T21:38:40.292Z,4.50
2018-09-24T21:41:14.265Z,4.50
2018-09-24T21:43:47.984Z,4.40
2018-09-24T21:46:22.057Z,4.40
2018-09-24T21:49:02.224Z,4.40
2018-09-24T21:51:35.984Z,4.40
2018-09-24T21:54:09.885Z,4.50
2018-09-24T21:56:43.590Z,4.50
2018-09-24T21:59:17.360Z,4.50
2018-09-24T22:01:51.168Z,4.60
2018-09-24T22:04:25.050Z,4.60
2018-09-24T22:07:05.299Z,4.50
2018-09-24T22:09:39.270Z,4.50
2018-09-24T22:12:13.099Z,4.50
2018-09-24T22:14:46.896Z,4.50
2018-09-24T22:17:20.600Z,4.50
2018-09-24T22:19:54.488Z,4.40
2018-09-24T22:22:28.469Z,4.30
2018-09-24T22:25:02.224Z,4.20
2018-09-24T22:27:36.093Z,4.20
2018-09-24T22:30:10.577Z,4.20
2018-09-24T22:32:44.439Z,4.20
2018-09-24T22:35:18.393Z,4.10
2018-09-24T22:37:52.020Z,4.00
2018-09-24T22:40:25.643Z,4.00
2018-09-24T22:42:59.628Z,3.90
2018-09-24T22:45:33.489Z,4.00
2018-09-24T22:48:07.232Z,3.80
2018-09-24T22:50:41.209Z,3.80
2018-09-24T22:53:14.982Z,3.80
2018-09-24T22:55:48.962Z,3.70
2018-09-24T22:58:22.793Z,3.70
2018-09-24T23:00:56.504Z,3.60
2018-09-24T23:03:30.403Z,3.60
2018-09-24T23:06:04.092Z,3.50
2018-09-24T23:08:38.010Z,3.50
2018-09-24T23:11:12.107Z,3.50
2018-09-24T23:13:46.067Z,3.60
2018-09-24T23:16:20.013Z,3.60
2018-09-24T23:18:53.776Z,3.60
2018-09-24T23:21:27.580Z,3.60
2018-09-24T23:24:01.464Z,3.50
2018-09-24T23:26:35.298Z,3.40
2018-09-24T23:29:09.206Z,3.40
2018-09-24T23:31:43.060Z,3.30
2018-09-24T23:34:16.860Z,3.20
2018-09-24T23:36:50.632Z,3.20
2018-09-24T23:39:24.558Z,3.20
2018-09-24T23:41:58.520Z,3.20
2018-09-24T23:44:32.297Z,3.20
2018-09-24T23:47:06.205Z,3.10
2018-09-24T23:49:40.023Z,3.10
2018-09-24T23:52:13.879Z,3.10
2018-09-24T23:54:47.653Z,3.00
2018-09-24T23:57:21.572Z,2.90
2018-09-24T23:59:55.411Z,2.90
